Time;durP1;ratioP1;P1;durP2;ratioP2;P2;SDS_P1;SDS_P2;PMS_P1;PMS_P2;Temp;Humidity;BMP_temperature;BMP_pressure;BME280_temperature;BME280_humidity;BME280_pressure;Samples;Min_cycle;Max_cycle;Signal;HPM_P1;HPM_P2
2024/01/26 00:02:07;;;;;;;24.90;4.93;;;9.00;99.90;;;;;;5034984;28;20208;-79
2024/01/26 00:04:33;;;;;;;24.25;5.38;;;9.00;99.90;;;;;;5035649;28;20647;-80
2024/01/26 00:06:58;;;;;;;20.53;4.60;;;9.00;99.90;;;;;;5037491;28;20207;-79
2024/01/26 00:09:24;;;;;;;21.97;4.60;;;9.00;99.90;;;;;;5040712;28;20244;-81
2024/01/26 00:11:49;;;;;;;20.57;4.40;;;9.00;99.90;;;;;;5040590;28;20214;-79
2024/01/26 00:14:15;;;;;;;24.37;5.00;;;9.00;99.90;;;;;;5040803;28;20166;-79
2024/01/26 00:16:41;;;;;;;20.83;5.13;;;9.00;99.90;;;;;;5041076;28;20272;-79
2024/01/26 00:19:07;;;;;;;20.70;5.33;;;9.00;99.90;;;;;;5041488;28;20185;-81
2024/01/26 00:21:33;;;;;;;19.83;4.57;;;9.00;99.90;;;;;;5042519;28;20212;-80
2024/01/26 00:23:59;;;;;;;21.27;4.80;;;9.00;99.90;;;;;;5042869;28;20165;-80
2024/01/26 00:26:25;;;;;;;19.70;4.00;;;9.00;99.90;;;;;;5041691;28;20166;-80
2024/01/26 00:28:51;;;;;;;21.27;4.13;;;9.00;99.90;;;;;;5042348;28;20423;-79
2024/01/26 00:31:19;;;;;;;21.88;4.15;;;9.00;99.90;;;;;;5024858;28;20204;-81
2024/01/26 00:33:46;;;;;;;19.67;4.10;;;9.00;99.90;;;;;;5024695;28;20639;-80
2024/01/26 00:36:12;;;;;;;21.67;4.90;;;9.00;99.90;;;;;;5042122;28;20174;-80
2024/01/26 00:38:39;;;;;;;20.58;4.22;;;9.00;99.90;;;;;;5025510;28;20681;-81
2024/01/26 00:41:04;;;;;;;20.00;4.20;;;9.00;99.90;;;;;;5042571;28;20194;-80
2024/01/26 00:43:30;;;;;;;23.23;4.93;;;9.00;99.90;;;;;;5043057;28;20166;-80
2024/01/26 00:45:56;;;;;;;23.30;5.37;;;9.00;99.90;;;;;;5042649;28;20219;-80
2024/01/26 00:48:22;;;;;;;21.53;4.73;;;9.00;99.90;;;;;;5042205;28;20416;-80
2024/01/26 00:50:50;;;;;;;22.87;5.20;;;9.00;99.90;;;;;;5042718;28;20199;-81
2024/01/26 00:53:17;;;;;;;20.63;4.88;;;9.00;99.90;;;;;;5024144;28;20538;-80
2024/01/26 00:55:43;;;;;;;22.15;5.07;;;9.00;99.90;;;;;;5024039;28;20681;-80
2024/01/26 00:58:09;;;;;;;23.70;5.30;;;9.00;99.90;;;;;;5024076;28;20198;-80
2024/01/26 01:00:34;;;;;;;21.27;4.60;;;9.00;99.90;;;;;;5041151;28;20756;-80
2024/01/26 01:03:00;;;;;;;22.43;5.23;;;9.00;99.90;;;;;;5041554;28;20487;-80
2024/01/26 01:05:26;;;;;;;20.30;4.00;;;9.00;99.90;;;;;;5041272;28;20172;-80
2024/01/26 01:07:51;;;;;;;20.60;4.43;;;9.00;99.90;;;;;;5023427;28;20193;-80
2024/01/26 01:10:18;;;;;;;20.17;4.53;;;9.10;99.90;;;;;;5041928;28;20170;-80
2024/01/26 01:12:44;;;;;;;28.30;5.57;;;9.10;99.90;;;;;;5041660;28;20169;-80
2024/01/26 01:15:13;;;;;;;20.92;4.82;;;9.10;99.90;;;;;;5041380;28;20647;-80
2024/01/26 01:17:41;;;;;;;20.98;4.65;;;9.10;99.90;;;;;;5040899;28;20231;-80
2024/01/26 01:20:10;;;;;;;20.33;3.90;;;9.10;99.90;;;;;;5023650;28;20578;-81
2024/01/26 01:22:37;;;;;;;22.30;5.97;;;9.10;99.90;;;;;;5023989;28;20170;-80
2024/01/26 01:25:06;;;;;;;22.48;5.20;;;9.10;99.90;;;;;;5040941;28;20654;-80
2024/01/26 01:27:33;;;;;;;22.02;5.07;;;9.10;99.90;;;;;;5041206;28;20186;-80
2024/01/26 01:29:59;;;;;;;22.15;5.03;;;9.10;99.90;;;;;;5041426;28;20216;-81
2024/01/26 01:32:25;;;;;;;21.33;4.90;;;9.10;99.90;;;;;;5041056;28;20174;-80
2024/01/26 01:34:52;;;;;;;20.50;5.23;;;9.10;99.90;;;;;;5040919;28;20162;-80
2024/01/26 01:37:18;;;;;;;20.27;4.05;;;9.10;99.90;;;;;;5041413;28;20188;-80
2024/01/26 01:39:43;;;;;;;19.73;5.03;;;9.20;99.90;;;;;;5041386;28;20183;-80
2024/01/26 01:42:14;;;;;;;20.90;5.10;;;9.20;99.90;;;;;;5041406;28;20166;-80
2024/01/26 01:44:43;;;;;;;21.25;4.63;;;9.20;99.90;;;;;;5042105;28;20150;-80
2024/01/26 01:47:10;;;;;;;19.80;4.35;;;9.20;99.90;;;;;;5041160;28;20204;-80
2024/01/26 01:49:37;;;;;;;22.15;4.40;;;9.20;99.90;;;;;;5041269;28;20241;-80
2024/01/26 01:52:17;;;;;;;21.40;4.57;;;9.30;99.90;;;;;;5041068;28;20176;-81
2024/01/26 01:54:43;;;;;;;20.73;4.05;;;9.30;99.90;;;;;;5024187;28;20174;-80
2024/01/26 01:57:12;;;;;;;19.80;4.15;;;9.30;99.90;;;;;;5041265;28;20240;-81
2024/01/26 01:59:39;;;;;;;21.00;3.97;;;9.30;99.90;;;;;;5023420;28;20177;-80
2024/01/26 02:02:05;;;;;;;21.33;5.10;;;9.40;99.90;;;;;;5041770;28;20221;-80
2024/01/26 02:04:31;;;;;;;24.33;4.22;;;9.40;99.90;;;;;;5040770;28;20154;-80
2024/01/26 02:06:59;;;;;;;19.58;3.88;;;9.40;99.90;;;;;;5040774;28;20189;-81
2024/01/26 02:09:25;;;;;;;23.92;4.32;;;9.40;99.90;;;;;;5023238;28;20166;-81
2024/01/26 02:11:52;;;;;;;20.83;4.18;;;9.40;99.90;;;;;;5041560;28;20500;-80
2024/01/26 02:14:17;;;;;;;19.42;4.00;;;9.40;99.90;;;;;;5040747;28;20235;-80
2024/01/26 02:16:57;;;;;;;21.73;4.30;;;9.40;99.90;;;;;;5022710;28;20193;-80
2024/01/26 02:19:24;;;;;;;19.38;4.10;;;9.40;99.90;;;;;;5040116;28;20417;-80
2024/01/26 02:21:49;;;;;;;20.50;3.60;;;9.50;99.90;;;;;;5023191;28;20282;-80
2024/01/26 02:24:15;;;;;;;20.50;4.10;;;9.50;99.90;;;;;;5040681;28;20178;-80
2024/01/26 02:26:41;;;;;;;21.97;3.70;;;9.50;99.90;;;;;;5039938;28;20466;-80
2024/01/26 02:29:07;;;;;;;20.63;4.20;;;9.50;99.90;;;;;;5039420;28;20397;-80
2024/01/26 02:31:33;;;;;;;18.93;3.43;;;9.50;99.90;;;;;;5040165;28;20501;-80
2024/01/26 02:33:58;;;;;;;18.47;3.00;;;9.50;99.90;;;;;;5039443;28;20776;-80
2024/01/26 02:36:28;;;;;;;19.00;3.60;;;9.50;99.90;;;;;;5039613;28;20181;-80
2024/01/26 02:38:53;;;;;;;19.67;3.00;;;9.50;99.90;;;;;;5005248;28;20710;-80
2024/01/26 02:41:19;;;;;;;19.23;3.50;;;9.50;99.90;;;;;;5039730;28;20232;-80
2024/01/26 02:43:44;;;;;;;20.23;3.67;;;9.60;99.90;;;;;;5040308;28;20166;-80
2024/01/26 02:46:10;;;;;;;18.87;3.40;;;9.60;99.90;;;;;;5040312;28;20180;-80
2024/01/26 02:48:37;;;;;;;18.90;3.28;;;9.60;99.90;;;;;;5039200;28;20174;-81
2024/01/26 02:51:03;;;;;;;18.42;2.55;;;9.60;99.90;;;;;;5039300;28;20711;-80
2024/01/26 02:53:28;;;;;;;18.80;2.57;;;9.60;99.90;;;;;;5039865;28;20197;-81
2024/01/26 02:55:54;;;;;;;18.60;3.10;;;9.60;99.90;;;;;;5038797;28;20439;-80
2024/01/26 02:58:20;;;;;;;21.60;3.73;;;9.60;99.90;;;;;;5039020;28;20196;-80
2024/01/26 03:00:46;;;;;;;18.67;3.00;;;9.60;99.90;;;;;;5039452;28;20228;-80
2024/01/26 03:03:11;;;;;;;22.63;3.33;;;9.60;99.90;;;;;;5021810;28;20261;-81
2024/01/26 03:05:37;;;;;;;19.73;3.90;;;9.60;99.90;;;;;;5039736;28;20419;-80
2024/01/26 03:08:03;;;;;;;20.37;3.57;;;9.60;99.90;;;;;;5038886;28;20197;-80
2024/01/26 03:10:29;;;;;;;22.00;3.60;;;9.60;99.90;;;;;;5040271;28;20201;-80
2024/01/26 03:12:55;;;;;;;19.60;3.40;;;9.60;99.90;;;;;;5039318;28;20411;-80
2024/01/26 03:15:21;;;;;;;19.65;3.65;;;9.60;99.90;;;;;;5022013;28;20176;-80
2024/01/26 03:17:47;;;;;;;19.00;3.42;;;9.60;99.90;;;;;;5039472;28;20666;-81
2024/01/26 03:20:13;;;;;;;18.23;3.27;;;9.60;99.90;;;;;;5039625;28;20277;-80
2024/01/26 03:22:39;;;;;;;19.05;2.72;;;9.70;99.90;;;;;;5040061;28;20166;-80
2024/01/26 03:25:05;;;;;;;19.07;3.37;;;9.70;99.90;;;;;;5021689;28;20204;-80
2024/01/26 03:27:31;;;;;;;17.73;2.70;;;9.70;99.90;;;;;;5039703;28;20421;-81
2024/01/26 03:29:57;;;;;;;19.77;3.40;;;9.70;99.90;;;;;;5021875;28;20177;-80
2024/01/26 03:32:22;;;;;;;21.23;3.40;;;9.70;99.90;;;;;;5040263;28;20166;-80
2024/01/26 03:34:48;;;;;;;20.40;3.13;;;9.80;99.90;;;;;;5040390;28;20173;-80
2024/01/26 03:37:13;;;;;;;18.67;3.33;;;9.80;99.90;;;;;;5040280;28;20620;-80
2024/01/26 03:39:39;;;;;;;19.87;3.00;;;9.80;99.90;;;;;;5022124;28;20654;-80
2024/01/26 03:42:06;;;;;;;26.37;3.00;;;9.80;99.90;;;;;;5039023;28;20659;-80
2024/01/26 03:44:32;;;;;;;19.42;2.72;;;9.80;99.90;;;;;;5022254;28;20436;-80
2024/01/26 03:46:57;;;;;;;18.05;2.90;;;9.80;99.90;;;;;;5038641;28;20596;-80
2024/01/26 03:49:23;;;;;;;19.27;2.80;;;9.80;99.90;;;;;;5038412;28;20166;-80
2024/01/26 03:51:49;;;;;;;16.67;2.53;;;9.80;99.90;;;;;;5039503;28;20643;-80
2024/01/26 03:54:14;;;;;;;17.57;2.93;;;9.80;99.90;;;;;;5039207;28;20405;-80
2024/01/26 03:56:40;;;;;;;18.30;2.70;;;9.70;99.90;;;;;;5038785;28;20185;-80
2024/01/26 03:59:06;;;;;;;18.37;2.80;;;9.80;99.90;;;;;;5022198;28;20193;-80
2024/01/26 04:01:31;;;;;;;17.87;2.80;;;9.70;99.90;;;;;;5039497;28;20189;-81
2024/01/26 04:03:57;;;;;;;17.80;2.50;;;9.70;99.90;;;;;;5040466;28;20249;-80
2024/01/26 04:06:23;;;;;;;18.43;2.80;;;9.70;99.90;;;;;;5040191;28;20252;-80
2024/01/26 04:08:48;;;;;;;19.17;2.73;;;9.70;99.90;;;;;;5040248;28;20568;-80
2024/01/26 04:11:14;;;;;;;18.67;3.00;;;9.80;99.90;;;;;;5039476;28;20405;-80
2024/01/26 04:13:40;;;;;;;17.17;2.80;;;9.80;99.90;;;;;;5039940;28;20277;-80
2024/01/26 04:16:06;;;;;;;18.40;2.20;;;9.80;99.90;;;;;;5039924;28;20166;-79
2024/01/26 04:18:32;;;;;;;17.00;2.25;;;9.80;99.90;;;;;;5039462;28;20170;-81
2024/01/26 04:20:57;;;;;;;18.10;2.47;;;9.80;99.90;;;;;;5039582;28;20192;-80
2024/01/26 04:23:23;;;;;;;17.20;2.17;;;9.80;99.90;;;;;;5039414;28;20227;-80
2024/01/26 04:25:49;;;;;;;17.23;2.23;;;9.70;99.90;;;;;;5039513;28;20675;-80
2024/01/26 04:28:14;;;;;;;16.10;2.10;;;9.70;99.90;;;;;;5038409;28;20189;-80
2024/01/26 04:30:43;;;;;;;17.70;2.13;;;9.70;99.90;;;;;;5020836;28;20224;-80
2024/01/26 04:33:09;;;;;;;16.92;2.40;;;9.70;99.90;;;;;;5038587;28;20172;-80
2024/01/26 04:35:35;;;;;;;16.90;2.17;;;9.60;99.90;;;;;;5038587;28;20241;-80
2024/01/26 04:38:00;;;;;;;18.17;2.50;;;9.60;99.90;;;;;;5038422;28;20201;-80
2024/01/26 04:40:26;;;;;;;17.50;2.43;;;9.60;99.90;;;;;;5040512;28;20186;-80
2024/01/26 04:42:52;;;;;;;16.20;2.20;;;9.60;99.90;;;;;;5040141;28;20646;-80
2024/01/26 04:45:17;;;;;;;16.30;2.30;;;9.50;99.90;;;;;;5039417;28;20711;-80
2024/01/26 04:47:43;;;;;;;16.77;2.77;;;9.50;99.90;;;;;;5039577;28;20205;-80
2024/01/26 04:50:09;;;;;;;19.40;3.70;;;9.50;99.90;;;;;;5040098;28;20170;-80
2024/01/26 04:52:35;;;;;;;17.20;2.88;;;9.40;99.90;;;;;;5040108;28;20181;-80
2024/01/26 04:55:01;;;;;;;18.07;3.10;;;9.40;99.90;;;;;;5043228;28;20166;-80
2024/01/26 04:57:26;;;;;;;19.13;2.57;;;9.30;99.90;;;;;;5042956;28;20182;-80
2024/01/26 04:59:52;;;;;;;21.20;3.63;;;9.30;99.90;;;;;;5043234;28;20201;-81
2024/01/26 05:02:18;;;;;;;17.20;3.10;;;9.30;99.90;;;;;;5042342;28;20177;-80
2024/01/26 05:04:44;;;;;;;18.43;2.60;;;9.30;99.90;;;;;;5043540;28;20156;-80
2024/01/26 05:07:09;;;;;;;21.10;2.97;;;9.30;99.90;;;;;;5043540;28;20436;-80
2024/01/26 05:09:35;;;;;;;18.00;2.50;;;9.30;99.90;;;;;;5043485;28;20657;-80
2024/01/26 05:12:01;;;;;;;18.42;2.50;;;9.30;99.90;;;;;;5043955;28;20670;-80
2024/01/26 05:14:27;;;;;;;18.27;3.00;;;9.30;99.90;;;;;;5044046;28;20200;-80
2024/01/26 05:16:52;;;;;;;17.10;3.00;;;9.30;99.90;;;;;;5025223;28;20608;-80
2024/01/26 05:19:18;;;;;;;18.77;2.70;;;9.30;99.90;;;;;;5043175;28;20170;-80
2024/01/26 05:21:44;;;;;;;17.97;3.03;;;9.30;99.90;;;;;;5043487;28;20190;-80
2024/01/26 05:24:09;;;;;;;16.40;2.60;;;9.30;99.90;;;;;;5043225;28;20679;-79
2024/01/26 05:26:38;;;;;;;19.77;3.47;;;9.30;99.90;;;;;;5042401;28;20255;-80
2024/01/26 05:29:06;;;;;;;17.20;3.00;;;9.20;99.90;;;;;;5042041;28;20295;-80
2024/01/26 05:31:33;;;;;;;16.85;3.20;;;9.20;99.90;;;;;;5042776;28;20181;-81
2024/01/26 05:33:58;;;;;;;18.10;3.38;;;9.20;99.90;;;;;;5042350;28;20174;-80
2024/01/26 05:36:24;;;;;;;19.00;3.13;;;9.20;99.90;;;;;;5042989;28;20196;-80
2024/01/26 05:38:50;;;;;;;18.47;3.10;;;9.10;99.90;;;;;;5042947;28;20197;-80
2024/01/26 05:41:15;;;;;;;19.33;3.20;;;9.10;99.90;;;;;;5041604;28;20622;-80
2024/01/26 05:43:41;;;;;;;18.63;3.27;;;9.10;99.90;;;;;;5042749;28;20231;-80
2024/01/26 05:46:06;;;;;;;16.43;2.50;;;9.00;99.90;;;;;;5042208;28;20166;-80
2024/01/26 05:48:32;;;;;;;22.00;2.73;;;9.00;99.90;;;;;;5042076;28;20631;-80
2024/01/26 05:50:58;;;;;;;19.80;2.87;;;9.00;99.90;;;;;;5042040;28;20190;-80
2024/01/26 05:53:23;;;;;;;19.07;2.93;;;9.00;99.90;;;;;;5042785;28;20162;-80
2024/01/26 05:55:49;;;;;;;16.07;2.20;;;9.00;99.90;;;;;;5042782;28;20165;-80
2024/01/26 05:58:17;;;;;;;17.30;2.53;;;9.10;99.90;;;;;;5024740;28;20239;-80
2024/01/26 06:00:43;;;;;;;17.73;2.00;;;9.00;99.90;;;;;;5043158;28;20273;-80
2024/01/26 06:03:09;;;;;;;21.40;2.83;;;9.00;99.90;;;;;;5042789;28;20232;-80
2024/01/26 06:05:35;;;;;;;17.13;2.57;;;9.00;99.90;;;;;;5042074;28;20169;-80
2024/01/26 06:08:00;;;;;;;16.13;2.23;;;9.00;99.90;;;;;;5042302;28;20511;-80
2024/01/26 06:10:26;;;;;;;17.23;2.20;;;9.00;99.90;;;;;;5042615;28;20170;-80
2024/01/26 06:12:52;;;;;;;16.97;2.20;;;9.00;99.90;;;;;;5041720;28;20170;-80
2024/01/26 06:15:18;;;;;;;17.07;2.23;;;9.00;99.90;;;;;;5042415;28;20530;-80
2024/01/26 06:17:45;;;;;;;19.67;2.23;;;9.00;99.90;;;;;;5024092;28;20225;-81
2024/01/26 06:20:12;;;;;;;16.00;2.00;;;9.00;99.90;;;;;;5023220;28;20202;-80
2024/01/26 06:22:37;;;;;;;15.90;1.60;;;9.00;99.90;;;;;;5041302;28;20217;-80
2024/01/26 06:25:03;;;;;;;15.60;1.90;;;9.00;99.90;;;;;;5041239;28;20204;-80
2024/01/26 06:27:29;;;;;;;16.63;2.10;;;8.90;99.90;;;;;;5040379;28;20690;-80
2024/01/26 06:29:54;;;;;;;16.63;2.00;;;9.00;99.90;;;;;;5040981;28;20428;-81
2024/01/26 06:32:20;;;;;;;18.53;2.10;;;9.00;99.90;;;;;;5041925;28;20165;-81
2024/01/26 06:34:46;;;;;;;17.00;2.30;;;9.00;99.90;;;;;;5042064;28;20166;-80
2024/01/26 06:37:12;;;;;;;15.50;1.70;;;9.00;99.90;;;;;;5025544;28;20671;-80
2024/01/26 06:39:38;;;;;;;17.00;2.00;;;9.00;99.90;;;;;;5043694;28;20168;-81
2024/01/26 06:42:04;;;;;;;15.70;1.70;;;9.00;99.90;;;;;;5043619;28;20448;-81
2024/01/26 06:44:32;;;;;;;15.65;1.70;;;9.10;99.90;;;;;;5043385;28;20543;-80
2024/01/26 06:46:58;;;;;;;15.95;1.70;;;9.10;99.90;;;;;;5044215;28;20260;-80
2024/01/26 06:49:23;;;;;;;17.40;1.53;;;9.10;99.90;;;;;;5041543;28;20189;-81
2024/01/26 06:51:49;;;;;;;16.03;1.70;;;9.10;99.90;;;;;;5040846;28;20169;-81
2024/01/26 06:54:15;;;;;;;18.57;1.80;;;9.10;99.90;;;;;;5040175;28;20223;-82
2024/01/26 06:56:40;;;;;;;16.20;1.70;;;9.10;99.90;;;;;;5040091;28;20185;-81
2024/01/26 06:59:06;;;;;;;16.23;2.00;;;9.10;99.90;;;;;;5039821;28;20198;-81
2024/01/26 07:01:32;;;;;;;16.80;2.20;;;9.10;99.90;;;;;;5039993;28;20197;-81
2024/01/26 07:03:57;;;;;;;17.50;2.33;;;9.10;99.90;;;;;;5040413;28;20588;-81
2024/01/26 07:06:23;;;;;;;17.37;2.50;;;9.20;99.90;;;;;;5040458;28;20170;-80
2024/01/26 07:08:49;;;;;;;16.60;2.67;;;9.20;99.90;;;;;;5040790;28;20429;-82
2024/01/26 07:11:17;;;;;;;15.80;2.07;;;9.30;99.90;;;;;;5039745;28;20219;-81
2024/01/26 07:13:43;;;;;;;17.10;2.50;;;9.30;99.90;;;;;;5021309;28;20440;-80
2024/01/26 07:16:09;;;;;;;16.30;2.40;;;9.30;99.90;;;;;;5020033;28;20531;-80
2024/01/26 07:18:34;;;;;;;16.23;2.33;;;9.30;99.90;;;;;;5036891;28;20432;-80
2024/01/26 07:21:06;;;;;;;16.43;2.20;;;9.40;99.90;;;;;;5036668;28;20590;-80
2024/01/26 07:23:32;;;;;;;16.75;2.15;;;9.50;99.90;;;;;;5037453;28;20202;-81
2024/01/26 07:25:58;;;;;;;15.70;1.80;;;9.50;99.90;;;;;;5037708;28;20182;-81
2024/01/26 07:28:23;;;;;;;16.53;1.90;;;9.60;99.90;;;;;;5019086;28;20439;-80
2024/01/26 07:30:49;;;;;;;17.63;2.80;;;9.60;99.90;;;;;;5037056;28;20182;-80
2024/01/26 07:33:15;;;;;;;16.90;2.60;;;9.70;99.90;;;;;;5018869;28;20177;-80
2024/01/26 07:35:41;;;;;;;16.70;2.27;;;9.70;99.90;;;;;;5036402;28;20188;-80
2024/01/26 07:38:06;;;;;;;17.13;2.70;;;9.80;99.90;;;;;;5036218;28;20527;-80
2024/01/26 07:40:32;;;;;;;17.30;2.70;;;9.90;99.90;;;;;;5035472;28;20216;-82
2024/01/26 07:42:58;;;;;;;18.93;3.07;;;9.90;99.90;;;;;;5016886;28;20215;-81
2024/01/26 07:45:23;;;;;;;17.37;3.23;;;9.90;99.90;;;;;;5035243;28;20170;-80
2024/01/26 07:47:50;;;;;;;18.70;3.30;;;10.00;99.90;;;;;;5034469;28;20468;-80
2024/01/26 07:50:16;;;;;;;19.15;4.65;;;9.90;99.90;;;;;;5035192;28;20166;-80
2024/01/26 07:52:42;;;;;;;22.75;3.90;;;10.00;99.90;;;;;;5035198;28;20547;-80
2024/01/26 07:55:09;;;;;;;20.90;3.90;;;10.00;99.90;;;;;;5017120;28;20170;-80
2024/01/26 07:57:36;;;;;;;20.80;3.80;;;10.00;99.90;;;;;;5034213;28;20180;-80
2024/01/26 08:00:02;;;;;;;20.60;2.95;;;10.00;99.90;;;;;;5034047;28;20169;-81
2024/01/26 08:02:28;;;;;;;17.90;3.30;;;10.00;99.90;;;;;;5034150;28;20173;-80
2024/01/26 08:04:54;;;;;;;20.50;3.50;;;10.10;99.90;;;;;;5034147;28;20644;-79
2024/01/26 08:07:21;;;;;;;17.45;2.88;;;10.10;99.90;;;;;;5033939;28;20276;-79
2024/01/26 08:09:46;;;;;;;18.23;2.70;;;10.10;99.90;;;;;;5034055;28;20159;-80
2024/01/26 08:12:12;;;;;;;16.20;1.97;;;10.10;99.90;;;;;;5033908;28;20170;-80
2024/01/26 08:14:37;;;;;;;15.80;1.80;;;10.20;99.90;;;;;;5033977;28;20166;-80
2024/01/26 08:17:03;;;;;;;16.50;2.17;;;10.20;99.90;;;;;;5016590;28;20197;-81
2024/01/26 08:19:29;;;;;;;18.80;2.00;;;10.20;99.90;;;;;;5034201;28;20174;-80
2024/01/26 08:21:55;;;;;;;15.70;1.60;;;10.20;99.90;;;;;;5033899;28;20517;-80
2024/01/26 08:24:20;;;;;;;15.80;1.77;;;10.20;99.90;;;;;;5034093;28;20157;-80
2024/01/26 08:26:46;;;;;;;17.30;2.20;;;10.20;99.90;;;;;;5034137;28;20424;-80
2024/01/26 08:29:12;;;;;;;17.87;2.40;;;10.20;99.90;;;;;;5037345;28;20253;-80
2024/01/26 08:31:37;;;;;;;21.73;2.37;;;10.20;99.90;;;;;;5037840;28;20216;-80
2024/01/26 08:34:03;;;;;;;17.20;2.33;;;10.20;99.90;;;;;;5037600;28;20174;-80
2024/01/26 08:36:29;;;;;;;15.73;1.63;;;10.20;99.90;;;;;;5019555;28;20194;-81
2024/01/26 08:38:56;;;;;;;18.33;1.80;;;10.20;99.90;;;;;;5037566;28;20166;-80
2024/01/26 08:41:22;;;;;;;16.13;1.70;;;10.20;99.90;;;;;;5019422;28;20576;-80
2024/01/26 08:43:48;;;;;;;15.00;1.17;;;10.30;99.90;;;;;;5037636;28;20161;-81
2024/01/26 08:46:13;;;;;;;15.17;1.27;;;10.30;99.90;;;;;;5037373;28;20699;-80
2024/01/26 08:48:39;;;;;;;14.97;1.13;;;10.40;99.90;;;;;;5037565;28;20170;-80
2024/01/26 08:51:05;;;;;;;15.50;1.20;;;10.30;99.90;;;;;;5038185;28;20412;-80
2024/01/26 08:53:31;;;;;;;14.70;1.00;;;10.40;99.90;;;;;;5037317;28;20172;-80
2024/01/26 08:55:56;;;;;;;20.73;1.37;;;10.40;99.90;;;;;;5038440;28;20165;-80
2024/01/26 08:58:22;;;;;;;14.90;1.20;;;10.50;99.90;;;;;;5037900;28;20194;-79
2024/01/26 09:00:48;;;;;;;15.10;1.23;;;10.60;99.90;;;;;;5038268;28;20218;-81
2024/01/26 09:03:14;;;;;;;15.10;1.13;;;10.60;99.90;;;;;;5020531;28;20177;-80
2024/01/26 09:05:39;;;;;;;15.10;1.27;;;10.60;99.90;;;;;;5038743;28;20499;-80
2024/01/26 09:08:05;;;;;;;14.63;1.40;;;10.70;99.90;;;;;;5038690;28;20746;-80
2024/01/26 09:10:31;;;;;;;15.30;1.63;;;10.70;99.90;;;;;;5038989;28;20174;-79
2024/01/26 09:12:57;;;;;;;14.87;1.17;;;10.70;99.90;;;;;;5038793;28;20405;-80
2024/01/26 09:15:23;;;;;;;15.80;1.50;;;10.80;99.90;;;;;;5039169;28;20411;-80
2024/01/26 09:17:48;;;;;;;15.30;1.10;;;10.80;99.90;;;;;;5021008;28;20189;-79
2024/01/26 09:20:14;;;;;;;14.67;1.03;;;10.80;99.90;;;;;;5021243;28;20543;-80
2024/01/26 09:22:40;;;;;;;15.20;1.03;;;10.90;99.90;;;;;;5021336;28;20166;-80
2024/01/26 09:25:06;;;;;;;15.40;0.90;;;10.90;99.90;;;;;;5038851;28;20439;-80
2024/01/26 09:27:32;;;;;;;14.10;0.82;;;10.90;99.90;;;;;;5038703;28;20189;-80
2024/01/26 09:29:57;;;;;;;15.50;1.20;;;10.90;99.90;;;;;;5039027;28;20162;-79
2024/01/26 09:32:23;;;;;;;14.33;0.90;;;11.00;99.90;;;;;;5038769;28;20643;-80
2024/01/26 09:34:48;;;;;;;15.93;0.90;;;11.00;99.90;;;;;;5038260;28;20176;-80
2024/01/26 09:37:14;;;;;;;15.20;0.97;;;11.00;99.90;;;;;;5021042;28;20201;-80
2024/01/26 09:39:41;;;;;;;14.17;0.83;;;11.10;99.90;;;;;;5036552;28;20172;-79
2024/01/26 09:42:06;;;;;;;14.13;0.80;;;11.20;99.90;;;;;;5038810;28;20217;-80
2024/01/26 09:44:32;;;;;;;13.93;0.70;;;11.30;99.90;;;;;;5038522;28;20209;-79
2024/01/26 09:47:00;;;;;;;13.87;0.90;;;11.30;99.90;;;;;;5020508;28;20729;-80
2024/01/26 09:49:28;;;;;;;14.05;0.80;;;11.40;99.90;;;;;;5020682;28;20228;-79
2024/01/26 09:51:54;;;;;;;14.05;1.00;;;11.50;99.90;;;;;;5037662;28;20658;-79
2024/01/26 09:54:20;;;;;;;14.73;0.93;;;11.50;99.90;;;;;;5037615;28;20201;-79
2024/01/26 09:57:03;;;;;;;14.05;0.98;;;11.60;99.90;;;;;;5037064;28;20189;-80
2024/01/26 09:59:31;;;;;;;14.02;0.98;;;11.70;99.90;;;;;;5037302;28;20166;-80
2024/01/26 10:01:57;;;;;;;14.32;0.90;;;11.70;99.90;;;;;;5037651;28;20550;-79
2024/01/26 10:04:23;;;;;;;14.60;1.00;;;11.80;99.90;;;;;;5038114;28;20246;-80
2024/01/26 10:06:49;;;;;;;14.60;1.00;;;11.80;99.90;;;;;;5019267;28;20193;-79
2024/01/26 10:09:15;;;;;;;13.85;1.10;;;11.80;99.90;;;;;;5037844;28;20166;-79
2024/01/26 10:11:41;;;;;;;13.87;0.90;;;11.90;99.90;;;;;;5020447;28;20524;-80
2024/01/26 10:14:06;;;;;;;13.93;0.90;;;11.90;99.90;;;;;;5037229;28;20170;-80
2024/01/26 10:16:32;;;;;;;14.17;1.00;;;11.90;99.90;;;;;;5037114;28;20627;-80
2024/01/26 10:18:58;;;;;;;13.77;0.87;;;11.90;99.90;;;;;;5037845;28;20197;-80
2024/01/26 10:21:24;;;;;;;14.07;0.90;;;11.90;99.90;;;;;;5036882;28;20186;-80
2024/01/26 10:23:50;;;;;;;14.40;1.00;;;11.90;99.90;;;;;;5037077;28;20575;-79
2024/01/26 10:26:16;;;;;;;13.73;0.80;;;11.90;99.90;;;;;;5037030;28;20177;-79
2024/01/26 10:28:43;;;;;;;14.70;1.03;;;11.90;99.90;;;;;;5036479;28;20245;-81
2024/01/26 10:31:08;;;;;;;13.82;0.90;;;11.90;99.90;;;;;;5036520;28;20192;-80
2024/01/26 10:33:39;;;;;;;13.93;0.97;;;12.00;99.90;;;;;;5038427;28;20170;-81
2024/01/26 10:36:07;;;;;;;13.85;1.05;;;12.00;99.90;;;;;;5036253;28;20153;-80
2024/01/26 10:38:34;;;;;;;16.02;1.33;;;12.00;99.90;;;;;;5019348;28;20593;-80
2024/01/26 10:41:04;;;;;;;14.07;1.10;;;12.10;99.90;;;;;;5036715;28;20557;-79
2024/01/26 10:43:31;;;;;;;13.93;0.90;;;12.10;99.90;;;;;;5018977;28;20175;-79
2024/01/26 10:45:58;;;;;;;13.93;1.10;;;12.10;99.90;;;;;;5036668;28;20166;-79
2024/01/26 10:48:25;;;;;;;14.43;1.40;;;12.10;99.90;;;;;;5036883;28;20209;-80
2024/01/26 10:50:50;;;;;;;14.48;1.30;;;12.10;99.90;;;;;;5037092;28;20166;-80
2024/01/26 10:53:19;;;;;;;14.67;1.57;;;12.20;99.90;;;;;;5037007;28;20178;-80
2024/01/26 10:55:47;;;;;;;13.93;1.02;;;12.10;99.90;;;;;;5037454;28;20627;-80
2024/01/26 10:58:13;;;;;;;16.27;1.45;;;12.10;99.90;;;;;;5037258;28;20182;-80
2024/01/26 11:00:39;;;;;;;13.77;1.00;;;12.00;99.90;;;;;;5019855;28;20263;-81
2024/01/26 11:03:05;;;;;;;14.40;1.25;;;12.10;99.90;;;;;;5019943;28;20227;-80
2024/01/26 11:05:31;;;;;;;14.18;1.30;;;12.00;99.90;;;;;;5037305;28;20561;-80
2024/01/26 11:08:01;;;;;;;15.37;1.10;;;12.00;99.90;;;;;;5037146;28;20290;-79
2024/01/26 11:10:28;;;;;;;14.40;1.20;;;12.00;99.90;;;;;;5020341;28;20658;-80
2024/01/26 11:13:02;;;;;;;14.15;1.17;;;12.00;99.90;;;;;;5037749;28;20173;-81
2024/01/26 11:15:34;;;;;;;15.45;1.92;;;12.00;99.90;;;;;;5035268;28;20197;-83
2024/01/26 11:18:01;;;;;;;17.58;2.58;;;12.00;99.90;;;;;;5035382;28;20205;-81
2024/01/26 11:20:31;;;;;;;16.20;1.38;;;11.70;99.90;;;;;;5017494;28;20562;-81
2024/01/26 11:23:15;;;;;;;16.25;1.38;;;11.60;99.90;;;;;;5017116;28;20154;-81
2024/01/26 11:25:43;;;;;;;20.13;1.98;;;11.40;99.90;;;;;;5017975;28;20150;-81
2024/01/26 11:28:10;;;;;;;14.90;1.10;;;11.10;99.90;;;;;;5035544;28;20192;-80
2024/01/26 11:30:37;;;;;;;19.67;1.70;;;11.10;99.90;;;;;;5035705;28;20539;-82
2024/01/26 11:33:14;;;;;;;16.08;1.33;;;10.80;99.90;;;;;;5035737;28;20257;-83
2024/01/26 11:35:40;;;;;;;15.98;1.05;;;10.80;99.90;;;;;;5018378;28;20241;-80
2024/01/26 11:38:06;;;;;;;22.93;2.70;;;10.60;99.90;;;;;;5035883;28;20205;-81
2024/01/26 11:40:33;;;;;;;17.08;1.73;;;10.60;99.90;;;;;;5034439;28;20190;-83
2024/01/26 11:42:59;;;;;;;15.35;1.30;;;10.60;99.90;;;;;;5017573;28;20169;-80
2024/01/26 11:45:33;;;;;;;16.80;1.73;;;10.60;99.90;;;;;;5036065;28;20161;-80
2024/01/26 11:47:59;;;;;;;14.80;1.65;;;10.60;99.90;;;;;;5036053;28;20189;-81
2024/01/26 11:50:25;;;;;;;17.80;1.60;;;10.70;99.90;;;;;;5035901;28;20196;-80
2024/01/26 11:52:50;;;;;;;15.70;1.43;;;10.70;99.90;;;;;;5018468;28;20173;-80
2024/01/26 11:55:20;;;;;;;16.67;1.30;;;10.80;99.90;;;;;;5021618;28;20177;-80
2024/01/26 11:57:45;;;;;;;18.85;1.50;;;10.70;99.90;;;;;;5036951;28;20244;-81
2024/01/26 12:00:12;;;;;;;15.53;1.60;;;10.80;99.90;;;;;;5019109;28;20174;-81
2024/01/26 12:02:38;;;;;;;17.50;2.00;;;10.90;99.90;;;;;;5037802;28;20154;-81
2024/01/26 12:05:04;;;;;;;15.60;1.70;;;10.90;99.90;;;;;;5041177;28;20175;-81
2024/01/26 12:07:30;;;;;;;15.80;1.63;;;10.90;99.90;;;;;;5040602;28;20444;-81
2024/01/26 12:09:56;;;;;;;18.47;2.13;;;11.00;99.90;;;;;;5042809;28;20304;-80
2024/01/26 12:12:22;;;;;;;15.52;1.52;;;11.00;99.90;;;;;;5023834;28;20260;-81
2024/01/26 12:14:48;;;;;;;17.77;1.57;;;11.10;99.90;;;;;;5040861;28;20201;-81
2024/01/26 12:17:13;;;;;;;19.07;1.50;;;11.20;99.90;;;;;;5023522;28;20440;-81
2024/01/26 12:19:39;;;;;;;17.73;1.80;;;11.20;99.90;;;;;;5041061;28;20397;-83
2024/01/26 12:22:09;;;;;;;15.03;1.67;;;11.20;99.90;;;;;;5042261;28;20566;-81
2024/01/26 12:24:35;;;;;;;21.98;1.42;;;11.20;99.90;;;;;;5041426;28;20170;-81
2024/01/26 12:27:04;;;;;;;17.87;2.10;;;11.30;99.90;;;;;;5024255;28;20269;-82
2024/01/26 12:29:30;;;;;;;16.08;1.67;;;11.50;99.90;;;;;;5041178;28;20173;-81
2024/01/26 12:32:07;;;;;;;16.03;1.30;;;11.60;99.90;;;;;;5040628;28;20169;-80
2024/01/26 12:34:36;;;;;;;19.88;1.55;;;11.70;99.90;;;;;;5024057;28;20404;-81
2024/01/26 12:37:04;;;;;;;20.50;1.83;;;11.70;99.90;;;;;;5042075;28;20196;-83
2024/01/26 12:39:30;;;;;;;18.23;2.00;;;11.70;99.90;;;;;;5024374;28;20169;-81